Time;durP1;ratioP1;P1;durP2;ratioP2;P2;SDS_P1;SDS_P2;PMS_P1;PMS_P2;Temp;Humidity;BMP_temperature;BMP_pressure;BME280_temperature;BME280_humidity;BME280_pressure;Samples;Min_cycle;Max_cycle;Signal;HPM_P1;HPM_P2
2023/08/03 00:00:08;;;;;;;2.40;1.37;;;17.50;99.90;;;;;;5031507;28;20683;-75
2023/08/03 00:02:34;;;;;;;1.97;1.47;;;17.50;99.90;;;;;;5030778;28;20237;-74
2023/08/03 00:05:03;;;;;;;2.80;1.50;;;17.40;99.90;;;;;;5028062;28;20438;-74
2023/08/03 00:07:30;;;;;;;2.50;1.97;;;17.40;99.90;;;;;;5033997;28;20433;-74
2023/08/03 00:09:55;;;;;;;3.20;1.53;;;17.40;99.90;;;;;;5048291;28;20464;-74
2023/08/03 00:12:22;;;;;;;4.60;1.50;;;17.40;99.90;;;;;;5049026;28;20406;-74
2023/08/03 00:14:49;;;;;;;3.03;1.63;;;17.40;99.90;;;;;;5050915;28;20195;-73
2023/08/03 00:17:15;;;;;;;1.50;1.20;;;17.40;99.90;;;;;;5050232;28;20413;-74
2023/08/03 00:19:40;;;;;;;2.13;1.23;;;17.40;99.90;;;;;;5050412;28;20919;-74
2023/08/03 00:22:06;;;;;;;1.57;1.47;;;17.40;99.90;;;;;;5050495;28;20531;-75
2023/08/03 00:24:32;;;;;;;2.40;1.10;;;17.40;99.90;;;;;;5040027;28;20294;-74
2023/08/03 00:26:57;;;;;;;2.00;1.27;;;17.30;99.90;;;;;;5029871;28;20181;-74
2023/08/03 00:29:23;;;;;;;1.70;1.30;;;17.30;99.90;;;;;;5029864;28;20196;-75
2023/08/03 00:31:48;;;;;;;1.53;1.30;;;17.30;99.90;;;;;;5029811;28;20178;-75
2023/08/03 00:34:14;;;;;;;1.33;1.20;;;17.30;99.90;;;;;;5037687;28;20274;-75
2023/08/03 00:36:39;;;;;;;3.73;1.43;;;17.30;99.90;;;;;;5036059;28;20267;-75
2023/08/03 00:39:05;;;;;;;2.63;1.40;;;17.30;99.90;;;;;;5033063;28;20263;-75
2023/08/03 00:41:31;;;;;;;3.43;1.50;;;17.30;99.90;;;;;;5034431;28;20332;-75
2023/08/03 00:43:57;;;;;;;2.00;1.30;;;17.20;99.90;;;;;;5033506;28;20553;-75
2023/08/03 00:46:22;;;;;;;1.70;1.43;;;17.20;99.90;;;;;;5034086;28;20404;-75
2023/08/03 00:48:48;;;;;;;2.07;1.87;;;17.20;99.90;;;;;;5033815;28;20209;-74
2023/08/03 00:51:14;;;;;;;2.07;1.23;;;17.10;99.90;;;;;;5034118;28;20244;-74
2023/08/03 00:53:39;;;;;;;2.97;1.60;;;17.10;99.90;;;;;;5031485;28;20247;-75
2023/08/03 00:56:05;;;;;;;1.63;1.53;;;17.10;99.90;;;;;;5035063;28;20217;-75
2023/08/03 00:58:31;;;;;;;1.47;1.20;;;17.10;99.90;;;;;;5031623;28;20183;-75
2023/08/03 01:00:56;;;;;;;1.87;1.40;;;17.10;99.90;;;;;;5032986;28;20179;-75
2023/08/03 01:03:22;;;;;;;1.40;1.30;;;17.00;99.90;;;;;;5033220;28;20202;-76
2023/08/03 01:05:48;;;;;;;1.10;1.00;;;17.10;99.90;;;;;;5032367;28;20188;-74
2023/08/03 01:08:13;;;;;;;1.47;1.17;;;17.10;99.90;;;;;;5033437;28;20336;-74
2023/08/03 01:10:39;;;;;;;2.17;1.30;;;17.10;99.90;;;;;;5032280;28;20176;-74
2023/08/03 01:13:05;;;;;;;5.00;1.57;;;17.10;99.90;;;;;;5033045;28;20201;-74
2023/08/03 01:15:30;;;;;;;1.33;1.10;;;17.10;99.90;;;;;;5032501;28;20178;-75
2023/08/03 01:17:56;;;;;;;3.87;1.50;;;17.10;99.90;;;;;;5032948;28;20179;-74
2023/08/03 01:20:24;;;;;;;2.53;1.50;;;17.10;99.90;;;;;;5034201;28;20535;-75
2023/08/03 01:22:49;;;;;;;2.50;1.80;;;17.10;99.90;;;;;;5034170;28;20563;-75
2023/08/03 01:25:15;;;;;;;3.50;1.67;;;17.10;99.90;;;;;;5051282;22;20885;31
2023/08/03 01:27:44;;;;;;;2.00;1.43;;;17.10;99.90;;;;;;5072147;28;20280;-73
2023/08/03 01:30:10;;;;;;;2.80;1.40;;;17.10;99.90;;;;;;5055105;28;20554;-73
2023/08/03 01:32:36;;;;;;;1.93;1.47;;;17.10;99.90;;;;;;5054570;28;20463;-73
2023/08/03 01:35:02;;;;;;;2.97;1.47;;;17.10;99.90;;;;;;5053235;28;20433;-72
2023/08/03 01:37:27;;;;;;;2.33;1.40;;;17.10;99.90;;;;;;5053126;28;20222;-71
2023/08/03 01:39:54;;;;;;;2.07;1.40;;;17.10;99.90;;;;;;5053895;28;20250;-72
2023/08/03 01:42:19;;;;;;;1.40;1.27;;;17.10;99.90;;;;;;5054801;28;20285;-71
2023/08/03 01:44:46;;;;;;;2.63;1.60;;;17.00;99.90;;;;;;5053801;28;20442;-74
2023/08/03 01:47:11;;;;;;;1.30;1.20;;;17.10;99.90;;;;;;5054436;28;20561;-72
2023/08/03 01:49:37;;;;;;;1.50;1.40;;;17.00;99.90;;;;;;5055095;28;20452;-72
2023/08/03 01:52:03;;;;;;;2.10;1.33;;;17.00;99.90;;;;;;5054977;28;20711;-72
2023/08/03 01:54:28;;;;;;;1.90;1.80;;;16.90;99.90;;;;;;5052694;28;20165;-72
2023/08/03 01:56:54;;;;;;;1.70;1.60;;;16.90;99.90;;;;;;5036112;28;20230;-72
2023/08/03 01:59:20;;;;;;;2.20;1.20;;;16.90;99.90;;;;;;5054336;28;20279;-72
2023/08/03 02:01:45;;;;;;;1.93;1.63;;;16.90;99.90;;;;;;5054217;28;21032;-73
2023/08/03 02:04:11;;;;;;;2.90;1.70;;;16.90;99.90;;;;;;5054127;28;20185;-72
2023/08/03 02:06:37;;;;;;;1.63;1.30;;;16.90;99.90;;;;;;5036199;28;20204;-74
2023/08/03 02:09:04;;;;;;;1.57;1.47;;;16.90;99.90;;;;;;5051325;28;20209;-71
2023/08/03 02:11:30;;;;;;;2.10;1.77;;;16.90;99.90;;;;;;5053254;28;20443;-72
2023/08/03 02:13:56;;;;;;;7.57;2.37;;;16.90;99.90;;;;;;5052571;28;20702;-72
2023/08/03 02:16:21;;;;;;;3.20;1.67;;;16.90;99.90;;;;;;5053835;28;20515;-72
2023/08/03 02:18:47;;;;;;;5.27;2.37;;;16.90;99.90;;;;;;5053899;28;20177;-73
2023/08/03 02:21:13;;;;;;;2.23;1.60;;;16.90;99.90;;;;;;5053964;28;20179;-71
2023/08/03 02:23:38;;;;;;;2.00;1.80;;;16.90;99.90;;;;;;5053848;28;20177;-72
2023/08/03 02:26:04;;;;;;;2.00;1.80;;;16.90;99.90;;;;;;5053827;28;20220;-72
2023/08/03 02:28:32;;;;;;;4.40;2.10;;;16.90;99.90;;;;;;5054257;28;20204;-72
2023/08/03 02:30:58;;;;;;;3.00;1.93;;;16.90;99.90;;;;;;5051009;28;20239;-71
2023/08/03 02:33:24;;;;;;;1.90;1.80;;;16.90;99.90;;;;;;5053467;28;20891;-72
2023/08/03 02:35:50;;;;;;;1.83;1.73;;;16.90;99.90;;;;;;5035196;28;20189;-72
2023/08/03 02:38:15;;;;;;;3.67;2.23;;;16.90;99.90;;;;;;5053119;28;20401;-70
2023/08/03 02:40:41;;;;;;;3.03;1.47;;;16.90;99.90;;;;;;5059179;28;20183;-72
2023/08/03 02:43:07;;;;;;;4.90;1.87;;;16.90;99.90;;;;;;5049514;28;20662;-73
2023/08/03 02:45:32;;;;;;;1.67;1.50;;;16.90;99.90;;;;;;5052163;28;20196;-71
2023/08/03 02:47:58;;;;;;;2.13;1.90;;;16.90;99.90;;;;;;5052802;28;20170;-71
2023/08/03 02:50:23;;;;;;;3.43;1.93;;;16.90;99.90;;;;;;5053474;28;20202;-72
2023/08/03 02:52:49;;;;;;;1.70;1.60;;;16.90;99.90;;;;;;5053004;28;20225;-73
2023/08/03 02:55:16;;;;;;;5.40;2.13;;;16.90;99.90;;;;;;5053280;28;20318;-73
2023/08/03 02:57:42;;;;;;;1.73;1.37;;;17.00;99.90;;;;;;5053149;28;20416;-72
2023/08/03 03:00:09;;;;;;;2.57;1.70;;;17.00;99.90;;;;;;5046711;28;21104;-72
2023/08/03 03:02:36;;;;;;;2.80;2.20;;;17.00;99.90;;;;;;5051071;28;20418;-71
2023/08/03 03:05:02;;;;;;;3.53;2.40;;;17.00;99.90;;;;;;5050583;28;20405;-72
2023/08/03 03:07:27;;;;;;;2.13;1.97;;;17.00;99.90;;;;;;5053103;28;20424;-72
2023/08/03 03:09:53;;;;;;;1.83;1.73;;;17.00;99.90;;;;;;5052691;28;20455;-74
2023/08/03 03:12:19;;;;;;;2.30;2.10;;;17.00;99.90;;;;;;5053476;28;20199;-72
2023/08/03 03:14:44;;;;;;;1.83;1.73;;;16.90;99.90;;;;;;5051760;28;20260;-71
2023/08/03 03:17:10;;;;;;;2.10;1.90;;;16.90;99.90;;;;;;5048861;28;20613;-71
2023/08/03 03:19:35;;;;;;;2.53;2.10;;;17.00;99.90;;;;;;5049841;28;20187;-74
2023/08/03 03:22:01;;;;;;;1.70;1.50;;;16.90;99.90;;;;;;5051394;28;20193;-73
2023/08/03 03:24:26;;;;;;;2.87;1.80;;;17.00;99.90;;;;;;5051649;28;20180;-72
2023/08/03 03:26:52;;;;;;;2.20;2.10;;;17.00;99.90;;;;;;5052578;28;20245;-72
2023/08/03 03:29:17;;;;;;;4.67;2.30;;;16.90;99.90;;;;;;5053166;28;20193;-73
2023/08/03 03:31:43;;;;;;;2.47;1.70;;;16.90;99.90;;;;;;5052916;28;20177;-72
2023/08/03 03:34:09;;;;;;;4.00;2.00;;;16.90;99.90;;;;;;5053454;28;20178;-72
2023/08/03 03:36:34;;;;;;;4.73;3.23;;;16.90;99.90;;;;;;5051530;28;20732;-72
2023/08/03 03:39:00;;;;;;;1.97;1.83;;;16.90;99.90;;;;;;5046961;28;20167;-72
2023/08/03 03:41:25;;;;;;;3.10;1.87;;;17.00;99.90;;;;;;5051020;28;20174;-71
2023/08/03 03:43:51;;;;;;;3.20;2.30;;;17.00;99.90;;;;;;5052235;28;20693;-73
2023/08/03 03:46:16;;;;;;;4.33;1.77;;;17.00;99.90;;;;;;5052093;28;20785;-73
2023/08/03 03:48:42;;;;;;;2.80;1.80;;;17.00;99.90;;;;;;5051214;28;20239;-73
2023/08/03 03:51:08;;;;;;;3.10;1.93;;;17.10;99.90;;;;;;5052534;28;20173;-72
2023/08/03 03:53:33;;;;;;;2.20;2.00;;;17.10;99.90;;;;;;5050307;28;20181;-73
2023/08/03 03:55:59;;;;;;;5.40;2.03;;;17.10;99.90;;;;;;5050573;28;20226;-74
2023/08/03 03:58:24;;;;;;;4.03;2.03;;;17.10;99.90;;;;;;5044236;28;20185;-71
2023/08/03 04:00:50;;;;;;;3.13;1.90;;;17.20;99.90;;;;;;5063524;28;20188;-72
2023/08/03 04:03:15;;;;;;;2.13;1.80;;;17.20;99.90;;;;;;5071505;28;20176;-72
2023/08/03 04:05:41;;;;;;;3.20;1.80;;;17.20;99.90;;;;;;5073188;28;20197;-72
2023/08/03 04:08:07;;;;;;;2.33;1.83;;;17.30;99.90;;;;;;5073158;28;20177;-73
2023/08/03 04:10:35;;;;;;;2.70;1.90;;;17.30;99.90;;;;;;5073994;28;20183;-73
2023/08/03 04:13:01;;;;;;;6.70;2.50;;;17.30;99.90;;;;;;5075336;28;20256;-73
2023/08/03 04:15:26;;;;;;;2.10;1.93;;;17.40;99.90;;;;;;5067539;28;20853;-71
2023/08/03 04:17:52;;;;;;;4.00;2.10;;;17.40;99.90;;;;;;5048724;28;20253;-72
2023/08/03 04:20:17;;;;;;;2.27;2.07;;;17.50;99.90;;;;;;5052811;28;20263;-73
2023/08/03 04:22:43;;;;;;;3.43;1.67;;;17.50;99.90;;;;;;5053231;28;20611;-72
2023/08/03 04:25:09;;;;;;;1.87;1.77;;;17.40;99.90;;;;;;5052974;28;20182;-72
2023/08/03 04:27:35;;;;;;;3.13;1.70;;;17.50;99.90;;;;;;5052460;28;20198;-71
2023/08/03 04:30:01;;;;;;;2.60;1.80;;;17.50;99.90;;;;;;5036371;28;20729;-72
2023/08/03 04:32:26;;;;;;;2.60;1.63;;;17.50;99.90;;;;;;5052193;28;20556;-72
2023/08/03 04:34:52;;;;;;;2.23;1.63;;;17.60;99.90;;;;;;5052047;28;20173;-71
2023/08/03 04:37:18;;;;;;;3.57;2.20;;;17.70;99.90;;;;;;5054822;28;20845;-72
2023/08/03 04:39:44;;;;;;;3.70;1.80;;;17.80;99.90;;;;;;5054554;28;20413;-72
2023/08/03 04:42:09;;;;;;;3.70;1.83;;;17.80;99.90;;;;;;5055507;28;20175;-73
2023/08/03 04:44:35;;;;;;;6.23;2.10;;;17.80;99.90;;;;;;5054977;28;20174;-72
2023/08/03 04:47:00;;;;;;;4.87;2.07;;;17.90;99.90;;;;;;5051714;28;20718;-71
2023/08/03 04:49:26;;;;;;;2.30;1.53;;;17.90;99.90;;;;;;5053006;28;20590;-73
2023/08/03 04:51:52;;;;;;;3.43;1.83;;;17.90;99.90;;;;;;5051476;28;20178;-73
2023/08/03 04:54:18;;;;;;;3.77;2.03;;;17.90;99.90;;;;;;5052211;28;20164;-72
2023/08/03 04:56:44;;;;;;;5.37;2.47;;;17.90;99.90;;;;;;5051547;28;20430;-71
2023/08/03 04:59:10;;;;;;;5.63;1.73;;;17.90;99.90;;;;;;5050570;28;20415;-72
2023/08/03 05:01:35;;;;;;;4.10;2.00;;;17.90;99.90;;;;;;5052335;28;20177;-73
2023/08/03 05:04:01;;;;;;;5.00;1.97;;;18.10;99.90;;;;;;5048732;28;20657;-73
2023/08/03 05:06:27;;;;;;;3.00;1.70;;;18.20;99.90;;;;;;5035383;28;20601;-74
2023/08/03 05:08:53;;;;;;;2.97;1.47;;;18.20;99.90;;;;;;5047865;28;20203;-72
2023/08/03 05:11:18;;;;;;;3.90;2.90;;;18.20;99.90;;;;;;5086807;28;20766;-73
2023/08/03 05:13:44;;;;;;;13.00;2.47;;;18.30;99.90;;;;;;5080815;28;20263;-72
2023/08/03 05:16:10;;;;;;;4.50;1.80;;;18.30;99.90;;;;;;5091516;28;20316;-71
2023/08/03 05:18:35;;;;;;;3.40;1.80;;;18.30;99.90;;;;;;5079456;28;20182;-73
2023/08/03 05:21:01;;;;;;;2.70;2.10;;;18.30;99.90;;;;;;5073490;28;20688;-72
2023/08/03 05:23:27;;;;;;;5.80;1.80;;;18.40;99.90;;;;;;5075896;28;20263;-74
2023/08/03 05:25:56;;;;;;;7.40;1.63;;;18.90;99.90;;;;;;5062727;28;20239;-71
2023/08/03 05:28:22;;;;;;;2.30;1.60;;;19.00;99.90;;;;;;5048674;28;20184;-73
2023/08/03 05:30:48;;;;;;;4.80;1.70;;;18.80;99.90;;;;;;5053819;28;20465;-73
2023/08/03 05:33:14;;;;;;;6.10;2.83;;;18.80;99.90;;;;;;5048878;28;20431;-72
2023/08/03 05:35:40;;;;;;;3.50;1.60;;;18.90;99.90;;;;;;5048564;28;20244;-73
2023/08/03 05:38:06;;;;;;;6.27;1.73;;;19.30;99.90;;;;;;5046112;28;20832;-71
2023/08/03 05:40:31;;;;;;;3.87;1.83;;;19.70;99.90;;;;;;5046775;28;20180;-74
2023/08/03 05:42:57;;;;;;;5.10;1.70;;;20.00;99.90;;;;;;5049754;28;20177;-72
2023/08/03 05:45:42;;;;;;;2.43;1.60;;;20.20;99.90;;;;;;5050995;28;20183;-74
2023/08/03 05:48:15;;;;;;;4.50;1.80;;;20.30;99.90;;;;;;5053792;28;20167;-74
2023/08/03 05:50:46;;;;;;;5.00;2.00;;;20.30;99.90;;;;;;5054939;28;20958;-74
2023/08/03 05:53:12;;;;;;;3.40;1.57;;;20.20;99.90;;;;;;5054624;28;20472;-73
2023/08/03 05:55:39;;;;;;;7.40;1.63;;;20.00;99.90;;;;;;5054846;28;20422;-73
2023/08/03 05:58:05;;;;;;;8.47;2.13;;;20.10;99.90;;;;;;5054439;28;20478;-75
2023/08/03 06:00:31;;;;;;;9.10;1.90;;;20.40;99.90;;;;;;5039028;28;20473;-74
2023/08/03 06:02:58;;;;;;;6.30;1.77;;;20.50;99.90;;;;;;5068861;28;26388;-74
2023/08/03 06:05:42;;;;;;;4.43;1.67;;;21.00;99.90;;;;;;5052883;28;20771;-73
2023/08/03 06:08:12;;;;;;;5.03;1.60;;;21.40;99.90;;;;;;5053699;28;20862;-73
2023/08/03 06:10:38;;;;;;;2.43;1.37;;;22.00;99.90;;;;;;5053393;28;20401;-71
2023/08/03 06:13:04;;;;;;;3.73;1.70;;;21.50;99.90;;;;;;5054141;28;20395;-71
2023/08/03 06:15:29;;;;;;;5.77;1.50;;;21.70;99.90;;;;;;5053762;28;20466;-72
2023/08/03 06:18:11;;;;;;;6.93;1.53;;;22.40;99.90;;;;;;5068695;28;20523;-72
2023/08/03 06:20:43;;;;;;;2.27;1.40;;;22.20;99.90;;;;;;5070693;28;20170;-72
2023/08/03 06:23:16;;;;;;;3.03;1.20;;;22.40;99.90;;;;;;5035265;28;20463;-72
2023/08/03 06:25:42;;;;;;;4.03;1.70;;;22.10;99.90;;;;;;5052870;28;20445;-71
2023/08/03 06:28:10;;;;;;;3.77;1.87;;;22.20;99.90;;;;;;5053380;28;20409;-73
2023/08/03 06:30:36;;;;;;;4.20;1.50;;;22.00;99.90;;;;;;5059347;28;20188;-71
2023/08/03 06:33:02;;;;;;;2.90;1.50;;;22.30;99.90;;;;;;5071831;28;20391;-72
2023/08/03 06:35:34;;;;;;;4.20;1.50;;;22.40;99.90;;;;;;5071684;28;20191;-73
2023/08/03 06:38:01;;;;;;;10.10;1.97;;;22.50;99.90;;;;;;5072352;28;20477;-74
2023/08/03 06:40:27;;;;;;;4.97;1.70;;;22.60;99.90;;;;;;5073602;28;20401;-73
2023/08/03 06:42:53;;;;;;;4.10;1.73;;;23.50;99.90;;;;;;5073288;28;20781;-72
2023/08/03 06:45:18;;;;;;;3.63;1.60;;;23.00;99.90;;;;;;5073390;28;20273;-75
2023/08/03 06:47:44;;;;;;;1.93;1.10;;;23.10;99.90;;;;;;5064998;28;20176;-74
2023/08/03 06:50:10;;;;;;;3.43;1.20;;;23.30;99.90;;;;;;5062503;28;20300;-72
2023/08/03 06:52:36;;;;;;;2.57;1.30;;;23.80;99.90;;;;;;5071985;28;20178;-74
2023/08/03 06:55:02;;;;;;;1.80;1.47;;;23.20;99.90;;;;;;5073342;28;20217;-73
2023/08/03 06:57:27;;;;;;;2.60;1.33;;;24.20;99.90;;;;;;5072870;28;20435;-71
2023/08/03 06:59:56;;;;;;;3.07;1.40;;;24.20;99.90;;;;;;5069971;28;20178;-71
2023/08/03 07:02:23;;;;;;;4.37;2.17;;;24.10;99.90;;;;;;5053263;28;20251;-69
2023/08/03 07:04:48;;;;;;;2.57;1.17;;;23.10;99.90;;;;;;5049942;28;20435;-73
2023/08/03 07:07:14;;;;;;;3.63;1.57;;;22.50;99.90;;;;;;5051712;28;20442;-72
2023/08/03 07:09:40;;;;;;;2.10;1.30;;;22.30;99.90;;;;;;5053775;28;20194;-72
2023/08/03 07:12:11;;;;;;;6.03;1.40;;;21.90;99.90;;;;;;5071367;28;20216;-71
2023/08/03 07:14:37;;;;;;;2.10;1.20;;;21.80;99.90;;;;;;5047871;28;20174;-73
2023/08/03 07:17:03;;;;;;;2.10;1.30;;;21.80;99.90;;;;;;5049057;28;20538;-72
2023/08/03 07:19:28;;;;;;;1.90;1.20;;;21.50;99.90;;;;;;5091684;28;20213;-71
2023/08/03 07:21:54;;;;;;;4.57;1.50;;;21.50;99.90;;;;;;5092750;28;20166;-73
2023/08/03 07:24:20;;;;;;;4.17;2.20;;;21.90;99.90;;;;;;5093475;28;20167;-73
2023/08/03 07:26:48;;;;;;;5.73;1.50;;;21.80;99.90;;;;;;5077946;28;20866;-73
2023/08/03 07:29:13;;;;;;;5.70;1.73;;;21.70;99.90;;;;;;5048167;28;20456;-72
2023/08/03 07:31:39;;;;;;;2.63;1.27;;;21.50;99.90;;;;;;5052041;28;20475;-73
2023/08/03 07:34:05;;;;;;;5.87;1.83;;;21.40;99.90;;;;;;5050306;28;20186;-74
2023/08/03 07:36:30;;;;;;;4.40;1.40;;;21.30;99.90;;;;;;5048987;28;20675;-70
2023/08/03 07:38:56;;;;;;;2.17;1.17;;;21.10;99.90;;;;;;5047733;28;20184;-73
2023/08/03 07:41:21;;;;;;;3.07;1.77;;;21.20;99.90;;;;;;5055349;28;20274;-73
2023/08/03 07:43:48;;;;;;;3.20;1.27;;;21.30;99.90;;;;;;5050414;28;20167;-72
2023/08/03 07:46:13;;;;;;;2.60;1.30;;;21.30;99.90;;;;;;5050555;28;20209;-73
2023/08/03 07:48:39;;;;;;;3.23;1.10;;;21.60;99.90;;;;;;5048624;28;20486;-72
2023/08/03 07:51:12;;;;;;;2.50;1.30;;;21.50;99.90;;;;;;5052452;28;20184;-71
2023/08/03 07:53:38;;;;;;;5.03;1.13;;;21.70;99.90;;;;;;5070342;28;20642;-72
2023/08/03 07:56:03;;;;;;;4.03;1.33;;;21.50;99.90;;;;;;5071859;28;20418;-73
2023/08/03 07:58:29;;;;;;;2.33;1.10;;;21.60;99.90;;;;;;5071845;28;20823;-71
2023/08/03 08:01:05;;;;;;;4.43;1.33;;;21.60;99.90;;;;;;5051641;28;20178;-72
2023/08/03 08:03:30;;;;;;;5.37;1.63;;;21.70;99.90;;;;;;5051924;28;20162;-72
2023/08/03 08:06:10;;;;;;;1.60;1.00;;;22.10;99.90;;;;;;5051780;28;20452;-73
2023/08/03 08:08:36;;;;;;;1.67;0.90;;;22.30;99.90;;;;;;5049046;28;20201;-71
2023/08/03 08:11:03;;;;;;;1.73;1.20;;;22.70;99.90;;;;;;5051057;28;20491;-72
2023/08/03 08:13:29;;;;;;;1.97;1.10;;;23.00;99.90;;;;;;5051653;28;20414;-73
2023/08/03 08:16:02;;;;;;;4.00;1.10;;;23.30;99.90;;;;;;5052102;28;20426;-73
2023/08/03 08:18:32;;;;;;;3.23;1.30;;;22.70;99.90;;;;;;5076430;28;20430;-73
2023/08/03 08:21:06;;;;;;;1.87;1.00;;;22.50;99.90;;;;;;5092319;28;20409;-72
2023/08/03 08:23:32;;;;;;;4.03;2.20;;;22.50;99.90;;;;;;5092969;28;20414;-79
2023/08/03 08:25:58;;;;;;;2.67;1.00;;;22.50;99.90;;;;;;5072057;28;20534;-75
2023/08/03 08:28:24;;;;;;;1.47;1.20;;;22.40;99.90;;;;;;5071243;28;20957;-73
2023/08/03 08:30:50;;;;;;;3.87;1.10;;;22.20;99.90;;;;;;5068195;28;20404;-73
2023/08/03 08:33:17;;;;;;;3.50;1.07;;;22.10;99.90;;;;;;5051454;28;20631;-72
2023/08/03 08:35:44;;;;;;;1.50;1.00;;;22.20;99.90;;;;;;5049434;28;20441;-73
2023/08/03 08:38:11;;;;;;;2.13;1.20;;;22.30;99.90;;;;;;5049993;28;20443;-71
2023/08/03 08:40:38;;;;;;;2.53;1.40;;;22.10;99.90;;;;;;5051657;28;20408;-73
2023/08/03 08:43:06;;;;;;;2.50;1.20;;;22.60;99.90;;;;;;5051494;28;20429;-73
2023/08/03 08:45:32;;;;;;;1.20;1.10;;;23.30;99.90;;;;;;5051775;28;20439;-75
2023/08/03 08:47:58;;;;;;;1.63;1.00;;;23.70;99.90;;;;;;5051377;28;20439;-73
2023/08/03 08:50:23;;;;;;;1.73;1.03;;;23.40;99.90;;;;;;5051337;28;20518;-73
2023/08/03 08:52:50;;;;;;;1.90;1.00;;;23.60;99.90;;;;;;5045566;28;20175;-72
2023/08/03 08:55:19;;;;;;;1.50;0.90;;;24.10;99.90;;;;;;5052085;28;20165;-73
2023/08/03 08:57:45;;;;;;;1.00;0.90;;;24.20;99.90;;;;;;5054043;28;20907;-72
2023/08/03 09:00:11;;;;;;;0.80;0.73;;;24.00;99.90;;;;;;5037349;28;20492;-73
2023/08/03 09:02:37;;;;;;;1.43;1.00;;;24.30;99.90;;;;;;5037678;28;20408;-74
2023/08/03 09:05:23;;;;;;;2.00;0.90;;;24.10;99.90;;;;;;5055611;28;20397;-74
2023/08/03 09:08:00;;;;;;;4.20;0.90;;;24.90;99.90;;;;;;5053271;28;20420;-73
2023/08/03 09:10:26;;;;;;;1.67;0.63;;;24.80;99.90;;;;;;5054185;28;20482;-72
2023/08/03 09:12:51;;;;;;;2.27;1.23;;;24.50;99.90;;;;;;5055566;28;20389;-72
2023/08/03 09:15:17;;;;;;;2.60;0.87;;;24.10;99.90;;;;;;5055675;28;20190;-75
2023/08/03 09:17:46;;;;;;;1.23;1.13;;;24.00;99.90;;;;;;5067194;28;20157;-73
2023/08/03 09:20:28;;;;;;;1.37;0.80;;;24.10;99.90;;;;;;5096686;28;20237;-72
2023/08/03 09:22:53;;;;;;;2.40;0.90;;;24.70;99.90;;;;;;5098040;28;20403;-73
2023/08/03 09:25:19;;;;;;;2.00;0.90;;;25.10;99.90;;;;;;5077182;28;20436;-72
2023/08/03 09:27:49;;;;;;;1.50;0.80;;;24.60;99.90;;;;;;5054182;28;20193;-72
2023/08/03 09:30:15;;;;;;;0.83;0.77;;;25.00;99.90;;;;;;5055128;28;20680;-73
2023/08/03 09:32:41;;;;;;;3.13;1.20;;;25.40;99.90;;;;;;5055539;28;20406;-72
2023/08/03 09:35:18;;;;;;;1.27;0.73;;;26.00;99.90;;;;;;5056457;28;20683;-74
2023/08/03 09:37:44;;;;;;;3.27;1.00;;;24.90;99.90;;;;;;5056112;28;20174;-73
2023/08/03 09:40:10;;;;;;;1.63;0.90;;;24.60;99.90;;;;;;5055999;28;20393;-73
2023/08/03 09:42:37;;;;;;;1.57;0.90;;;24.10;99.90;;;;;;5034506;28;20253;-72
2023/08/03 09:45:05;;;;;;;6.13;0.80;;;23.60;99.90;;;;;;5053948;28;20950;-73
2023/08/03 09:47:31;;;;;;;1.07;0.70;;;23.90;99.90;;;;;;5054129;28;20778;-73
2023/08/03 09:49:57;;;;;;;1.77;0.73;;;23.40;99.90;;;;;;5054505;28;20444;-72
2023/08/03 09:52:26;;;;;;;1.10;0.80;;;23.30;99.90;;;;;;5054585;28;20656;-73
2023/08/03 09:55:14;;;;;;;0.70;0.70;;;23.00;99.90;;;;;;5054592;28;20687;-73
2023/08/03 09:57:42;;;;;;;1.73;0.90;;;22.80;99.90;;;;;;5057255;28;20510;-72
2023/08/03 10:00:08;;;;;;;0.80;0.80;;;22.50;99.90;;;;;;5061589;28;20440;-73
2023/08/03 10:03:07;;;;;;;2.00;1.00;;;23.00;99.90;;;;;;5046394;28;20442;-73
2023/08/03 10:05:39;;;;;;;0.93;0.60;;;23.70;99.90;;;;;;5052431;28;20446;-73
2023/08/03 10:08:09;;;;;;;1.30;1.00;;;23.80;99.90;;;;;;5050910;28;20422;-73
2023/08/03 10:10:46;;;;;;;1.57;0.73;;;24.20;99.90;;;;;;5075684;28;20460;-74
2023/08/03 10:13:13;;;;;;;0.80;0.60;;;24.50;99.90;;;;;;5054848;28;21000;-71
2023/08/03 10:15:41;;;;;;;1.23;0.73;;;24.90;99.90;;;;;;5081457;28;20448;-73
2023/08/03 10:18:06;;;;;;;0.90;0.80;;;25.00;99.90;;;;;;5072742;28;20492;-74
2023/08/03 10:20:36;;;;;;;1.10;0.90;;;24.80;99.90;;;;;;5072250;28;20489;-72
2023/08/03 10:23:16;;;;;;;1.37;0.73;;;24.60;99.90;;;;;;5063656;28;20258;-71
2023/08/03 10:26:01;;;;;;;2.20;0.77;;;24.30;99.90;;;;;;5068088;28;21014;-71
2023/08/03 10:28:43;;;;;;;3.13;0.90;;;24.10;99.90;;;;;;5060125;28;20424;-73
2023/08/03 10:31:15;;;;;;;1.43;0.80;;;23.80;99.90;;;;;;5070048;28;20442;-73
2023/08/03 10:33:50;;;;;;;2.40;1.57;;;23.80;99.90;;;;;;5069160;28;20451;-72
2023/08/03 10:36:28;;;;;;;2.07;1.13;;;23.90;99.90;;;;;;5054142;28;20498;-72
2023/08/03 10:38:55;;;;;;;2.10;0.93;;;24.20;99.90;;;;;;5072275;28;20774;-72
2023/08/03 10:41:22;;;;;;;2.30;0.73;;;24.00;99.90;;;;;;5071748;28;20427;-73
2023/08/03 10:44:06;;;;;;;1.43;0.77;;;23.80;99.90;;;;;;5071624;28;20745;-72
2023/08/03 10:46:36;;;;;;;1.00;0.83;;;23.70;99.90;;;;;;5071585;28;20457;-73
2023/08/03 10:51:50;;;;;;;0.93;0.80;;;23.30;99.90;;;;;;5071254;28;21198;-72
2023/08/03 10:54:27;;;;;;;1.03;0.90;;;23.20;99.90;;;;;;5071952;28;20400;-74
2023/08/03 10:57:04;;;;;;;1.57;1.47;;;23.50;99.90;;;;;;5071674;28;20466;-72
2023/08/03 10:59:35;;;;;;;1.00;0.77;;;23.90;99.90;;;;;;5071502;28;20406;-74
2023/08/03 11:02:21;;;;;;;6.73;1.10;;;23.80;99.90;;;;;;5065145;28;20408;-73
2023/08/03 11:04:51;;;;;;;1.03;0.80;;;23.80;99.90;;;;;;5068973;28;20469;-74
2023/08/03 11:07:26;;;;;;;3.13;0.67;;;23.60;99.90;;;;;;5071202;28;20432;-72
2023/08/03 11:09:53;;;;;;;0.87;0.70;;;23.40;99.90;;;;;;5071513;28;20450;-74
2023/08/03 11:12:22;;;;;;;1.67;0.80;;;23.20;99.90;;;;;;5071355;28;20444;-72
2023/08/03 11:14:50;;;;;;;1.73;0.83;;;22.90;99.90;;;;;;5071378;28;20411;-74
2023/08/03 11:17:19;;;;;;;1.80;0.90;;;23.20;99.90;;;;;;5071564;28;20435;-73
2023/08/03 11:19:44;;;;;;;2.40;1.07;;;23.30;99.90;;;;;;5057525;28;20430;-72
2023/08/03 11:22:11;;;;;;;1.47;0.90;;;23.50;99.90;;;;;;5047449;28;20507;-73
2023/08/03 11:24:37;;;;;;;1.70;0.93;;;23.70;99.90;;;;;;5073598;28;20220;-72
2023/08/03 11:27:04;;;;;;;1.10;0.90;;;23.50;99.90;;;;;;5056802;28;20993;-74
2023/08/03 11:29:33;;;;;;;1.10;1.00;;;23.40;99.90;;;;;;5073895;28;20630;-72
2023/08/03 11:31:59;;;;;;;3.20;0.93;;;23.50;99.90;;;;;;5055750;28;20412;-74
2023/08/03 11:34:24;;;;;;;2.50;0.70;;;22.70;99.90;;;;;;5073598;28;20411;-74
2023/08/03 11:36:51;;;;;;;1.50;0.87;;;22.70;99.90;;;;;;5072860;28;20733;-75
2023/08/03 11:39:18;;;;;;;1.63;0.70;;;22.90;99.90;;;;;;5073082;28;20177;-75
2023/08/03 11:41:44;;;;;;;3.30;1.10;;;22.60;99.90;;;;;;5073192;28;20408;-73
2023/08/03 11:44:10;;;;;;;1.50;0.90;;;22.50;99.90;;;;;;5072913;28;20412;-73
2023/08/03 11:46:36;;;;;;;1.20;0.90;;;22.30;99.90;;;;;;5072274;28;20427;-74
2023/08/03 11:49:02;;;;;;;1.03;0.93;;;22.60;99.90;;;;;;5071843;28;20334;-74
2023/08/03 11:51:38;;;;;;;1.17;0.80;;;22.60;99.90;;;;;;5071536;28;20170;-73
2023/08/03 11:54:06;;;;;;;2.20;0.70;;;23.10;99.90;;;;;;5072828;28;20463;-73
2023/08/03 11:56:37;;;;;;;4.47;0.87;;;23.50;99.90;;;;;;5072752;28;20428;-75
2023/08/03 11:59:09;;;;;;;1.27;0.80;;;23.70;99.90;;;;;;5072542;28;20412;-74
2023/08/03 12:01:46;;;;;;;2.23;1.00;;;23.90;99.90;;;;;;5072745;28;20411;-74
2023/08/03 12:04:12;;;;;;;1.23;0.70;;;23.60;99.90;;;;;;5068910;28;20499;-72
2023/08/03 12:06:53;;;;;;;1.53;0.70;;;23.40;99.90;;;;;;5072044;28;20503;-73
2023/08/03 12:09:24;;;;;;;1.20;0.80;;;23.50;99.90;;;;;;5067349;28;20462;-74
2023/08/03 12:11:49;;;;;;;1.00;0.80;;;23.50;99.90;;;;;;5071510;28;20422;-74
2023/08/03 12:14:17;;;;;;;1.87;0.80;;;23.70;99.90;;;;;;5071193;28;20404;-74
2023/08/03 12:16:42;;;;;;;1.00;0.70;;;23.30;99.90;;;;;;5071644;28;20188;-74
2023/08/03 12:19:08;;;;;;;1.43;0.90;;;23.20;99.90;;;;;;5074409;28;20495;-75
2023/08/03 12:21:35;;;;;;;1.00;0.80;;;22.90;99.90;;;;;;5076406;28;20177;-74
2023/08/03 12:24:01;;;;;;;0.83;0.80;;;22.80;99.90;;;;;;5071164;28;20188;-73
2023/08/03 12:26:27;;;;;;;4.97;1.00;;;22.70;99.90;;;;;;5071377;28;20448;-74
2023/08/03 12:28:52;;;;;;;2.70;0.70;;;22.60;99.90;;;;;;5071379;28;20457;-73
2023/08/03 12:31:18;;;;;;;3.03;1.00;;;22.70;99.90;;;;;;5075562;28;20167;-74
2023/08/03 12:33:43;;;;;;;2.40;1.00;;;22.60;99.90;;;;;;5075366;28;20252;-72
2023/08/03 12:36:09;;;;;;;0.70;0.70;;;22.70;99.90;;;;;;5075482;28;20192;-74
2023/08/03 12:38:35;;;;;;;0.80;0.80;;;22.20;99.90;;;;;;5075687;28;20195;-73
2023/08/03 12:41:00;;;;;;;1.27;0.80;;;22.10;99.90;;;;;;5092385;28;20411;-74
2023/08/03 12:43:26;;;;;;;0.80;0.77;;;22.40;99.90;;;;;;5069214;28;20177;-74
2023/08/03 12:45:52;;;;;;;0.93;0.80;;;22.50;99.90;;;;;;5069776;28;20193;-73
2023/08/03 12:48:17;;;;;;;4.40;0.90;;;22.70;99.90;;;;;;5074300;28;20172;-74
2023/08/03 12:50:44;;;;;;;2.07;1.60;;;22.70;99.90;;;;;;5072938;28;20243;-74